Time;durP1;ratioP1;P1;durP2;ratioP2;P2;SDS_P1;SDS_P2;PMS_P1;PMS_P2;Temp;Humidity;BMP_temperature;BMP_pressure;BME280_temperature;BME280_humidity;BME280_pressure;Samples;Min_cycle;Max_cycle;Signal;HPM_P1;HPM_P2
2022/09/18 00:01:28;;;;;;;1.60;0.80;;;18.80;39.50;;;;;;5033426;28;20385;-74
2022/09/18 00:03:57;;;;;;;2.73;1.03;;;18.80;39.20;;;;;;5046196;28;20229;-75
2022/09/18 00:06:28;;;;;;;3.27;1.40;;;18.80;39.40;;;;;;5031988;28;20219;-73
2022/09/18 00:08:57;;;;;;;4.33;0.80;;;18.70;40.20;;;;;;5031503;28;20188;-76
2022/09/18 00:11:27;;;;;;;1.53;0.70;;;18.80;39.60;;;;;;5032621;28;20216;-73
2022/09/18 00:13:55;;;;;;;2.43;0.80;;;18.90;39.60;;;;;;5032164;28;20647;-73
2022/09/18 00:16:24;;;;;;;1.83;0.70;;;19.10;39.60;;;;;;5032059;28;20181;-71
2022/09/18 00:18:52;;;;;;;5.43;0.90;;;19.20;39.20;;;;;;5039069;28;20176;-73
2022/09/18 00:21:24;;;;;;;1.33;0.73;;;19.00;38.70;;;;;;5026566;28;20561;-73
2022/09/18 00:23:56;;;;;;;2.40;0.70;;;19.10;39.50;;;;;;5021219;28;20652;-72
2022/09/18 00:26:24;;;;;;;0.90;0.70;;;19.30;38.40;;;;;;5031492;28;20188;-73
2022/09/18 00:28:53;;;;;;;1.77;0.77;;;19.10;38.70;;;;;;5020285;28;20216;-73
2022/09/18 00:31:28;;;;;;;5.13;0.87;;;19.20;39.50;;;;;;5013410;28;20209;-74
2022/09/18 00:33:58;;;;;;;1.60;0.90;;;19.40;38.70;;;;;;5018491;28;20272;-74
2022/09/18 00:36:26;;;;;;;2.13;0.70;;;19.70;38.80;;;;;;5019554;28;20192;-75
2022/09/18 00:38:54;;;;;;;1.80;0.77;;;19.90;37.70;;;;;;5026822;28;20184;-73
2022/09/18 00:41:24;;;;;;;1.93;1.07;;;19.70;37.80;;;;;;5030758;28;20553;-73
2022/09/18 00:43:57;;;;;;;3.97;0.73;;;19.70;38.20;;;;;;5032078;28;20197;-74
2022/09/18 00:46:25;;;;;;;1.67;0.70;;;20.10;37.60;;;;;;5032034;28;20181;-73
2022/09/18 00:49:06;;;;;;;1.43;0.73;;;20.00;38.10;;;;;;5028000;28;20515;-74
2022/09/18 00:51:36;;;;;;;2.43;0.70;;;19.90;37.30;;;;;;5037234;28;20696;-74
2022/09/18 00:54:26;;;;;;;1.47;0.70;;;20.00;37.70;;;;;;5043192;28;20219;-73
2022/09/18 00:56:58;;;;;;;2.37;0.83;;;20.00;37.70;;;;;;5031114;28;20184;-76
2022/09/18 00:59:29;;;;;;;2.53;0.73;;;20.30;38.10;;;;;;5032180;28;20212;-74
2022/09/18 01:01:58;;;;;;;0.93;0.60;;;20.30;37.50;;;;;;5031998;28;20665;-75
2022/09/18 01:04:27;;;;;;;2.33;0.73;;;20.30;37.30;;;;;;5032353;28;20271;-75
2022/09/18 01:07:06;;;;;;;2.30;1.00;;;20.20;37.00;;;;;;5031654;28;20236;-74
2022/09/18 01:09:58;;;;;;;1.53;0.70;;;20.20;37.40;;;;;;5032392;28;20259;-73
2022/09/18 01:12:47;;;;;;;4.00;0.80;;;20.30;36.50;;;;;;5032080;28;20299;-73
2022/09/18 01:15:36;;;;;;;1.00;0.60;;;20.50;37.00;;;;;;5030065;28;20180;-74
2022/09/18 01:18:03;;;;;;;1.40;0.60;;;20.80;36.50;;;;;;5032160;28;20185;-78
2022/09/18 01:20:49;;;;;;;2.07;1.10;;;21.00;35.80;;;;;;5032091;28;20180;-75
2022/09/18 01:23:22;;;;;;;3.60;1.47;;;21.00;35.90;;;;;;5030331;28;20177;-77
2022/09/18 01:26:14;;;;;;;4.63;1.00;;;20.90;35.90;;;;;;5028243;28;20192;-72
2022/09/18 01:29:17;;;;;;;1.23;0.60;;;20.80;35.80;;;;;;5031683;28;20188;-73
2022/09/18 01:32:14;;;;;;;2.67;0.90;;;20.90;35.90;;;;;;5031067;28;20227;-75
2022/09/18 01:34:54;;;;;;;1.17;0.70;;;20.80;36.00;;;;;;5023195;28;20185;-73
2022/09/18 01:37:34;;;;;;;2.83;1.07;;;21.10;34.80;;;;;;5033461;28;20195;-74
2022/09/18 01:40:23;;;;;;;2.60;1.00;;;21.30;35.30;;;;;;5035301;28;20544;-75
2022/09/18 01:42:54;;;;;;;2.40;0.83;;;21.30;34.20;;;;;;5035296;28;20195;-73
2022/09/18 01:45:27;;;;;;;1.07;0.70;;;21.60;35.00;;;;;;5034814;28;20180;-75
2022/09/18 01:47:59;;;;;;;1.60;0.70;;;21.50;34.10;;;;;;5027690;28;20215;-74
2022/09/18 01:50:30;;;;;;;1.23;0.80;;;21.70;34.00;;;;;;5035415;28;20196;-75
2022/09/18 01:53:09;;;;;;;2.23;0.70;;;21.90;34.40;;;;;;5034745;28;20180;-72
2022/09/18 01:55:39;;;;;;;1.53;0.90;;;22.10;33.90;;;;;;5047758;28;20186;-73
2022/09/18 01:58:08;;;;;;;4.70;0.73;;;22.20;32.70;;;;;;5040182;28;20233;-71
2022/09/18 02:00:45;;;;;;;3.00;0.83;;;22.40;34.00;;;;;;5034924;28;20188;-78
2022/09/18 02:03:36;;;;;;;1.53;0.70;;;22.50;32.80;;;;;;5034649;28;20177;-72
2022/09/18 02:06:09;;;;;;;1.17;0.63;;;22.60;32.50;;;;;;5033368;28;20231;-71
2022/09/18 02:08:52;;;;;;;2.10;0.90;;;22.30;32.30;;;;;;5033412;28;20172;-73
2022/09/18 02:11:20;;;;;;;1.23;0.70;;;22.40;32.50;;;;;;5034908;28;20270;-75
2022/09/18 02:14:06;;;;;;;0.87;0.70;;;22.60;33.10;;;;;;5034325;28;20184;-74
2022/09/18 02:16:47;;;;;;;2.63;1.00;;;22.70;32.90;;;;;;5034009;28;20205;-73
2022/09/18 02:19:41;;;;;;;2.70;0.97;;;22.70;32.90;;;;;;5033469;28;20586;-73
2022/09/18 02:22:14;;;;;;;0.90;0.60;;;22.80;33.00;;;;;;5033279;28;20259;-73
2022/09/18 02:24:46;;;;;;;1.37;0.70;;;23.30;32.20;;;;;;5030408;28;20520;-72
2022/09/18 02:27:15;;;;;;;3.23;0.60;;;23.30;32.10;;;;;;5034538;28;20173;-72
2022/09/18 02:29:45;;;;;;;2.03;0.73;;;23.30;31.40;;;;;;5030612;28;20212;-73
2022/09/18 02:32:13;;;;;;;1.87;1.17;;;23.10;32.50;;;;;;5034041;28;20213;-74
2022/09/18 02:34:41;;;;;;;1.77;1.00;;;23.20;32.10;;;;;;5022134;28;20177;-73
2022/09/18 02:37:29;;;;;;;3.03;1.10;;;23.30;32.10;;;;;;5031221;28;20720;-72
2022/09/18 02:40:21;;;;;;;1.53;0.80;;;23.70;32.00;;;;;;5033383;28;20173;-74
2022/09/18 02:43:15;;;;;;;2.47;1.17;;;24.00;31.20;;;;;;5030572;28;20188;-73
2022/09/18 02:45:53;;;;;;;2.00;0.70;;;24.00;31.80;;;;;;5026293;28;20192;-74
2022/09/18 02:48:35;;;;;;;6.00;0.90;;;23.80;31.00;;;;;;5040591;28;20310;-73
2022/09/18 02:51:09;;;;;;;2.60;2.37;;;24.00;30.40;;;;;;5040065;28;20243;-72
2022/09/18 02:54:05;;;;;;;2.03;0.90;;;24.30;30.20;;;;;;5033999;28;20208;-75
2022/09/18 02:56:48;;;;;;;1.73;0.70;;;24.40;29.70;;;;;;4997518;28;20189;-71
2022/09/18 02:59:23;;;;;;;5.30;0.93;;;24.10;30.00;;;;;;5034089;28;20177;-73
2022/09/18 03:01:51;;;;;;;1.60;0.80;;;24.20;29.70;;;;;;5050777;28;20196;-73
2022/09/18 03:04:27;;;;;;;1.43;0.60;;;24.30;29.20;;;;;;5034140;28;20259;-74
2022/09/18 03:06:55;;;;;;;3.30;0.83;;;24.50;28.90;;;;;;5031486;28;20327;-72
2022/09/18 03:09:23;;;;;;;3.40;1.57;;;24.70;29.50;;;;;;5032644;28;20176;-72
2022/09/18 03:11:52;;;;;;;3.13;1.23;;;24.90;28.60;;;;;;5034002;28;20224;-71
2022/09/18 03:14:20;;;;;;;1.00;0.57;;;25.30;27.50;;;;;;5034203;28;20173;-71
2022/09/18 03:16:47;;;;;;;1.67;0.70;;;24.70;27.30;;;;;;5032489;28;20589;-71
2022/09/18 03:19:16;;;;;;;2.33;0.70;;;24.80;27.30;;;;;;5034349;28;20255;-71
2022/09/18 03:21:44;;;;;;;1.63;0.90;;;25.50;26.30;;;;;;5033816;28;20271;-73
2022/09/18 03:24:12;;;;;;;3.17;0.93;;;25.40;27.30;;;;;;5033827;28;20208;-79
2022/09/18 03:26:39;;;;;;;1.70;0.90;;;25.30;28.50;;;;;;5033854;28;20180;-71
2022/09/18 03:29:10;;;;;;;2.27;0.93;;;25.30;28.60;;;;;;5035653;28;20177;-72
2022/09/18 03:31:37;;;;;;;1.00;0.70;;;25.30;28.90;;;;;;5047394;28;20209;-73
2022/09/18 03:34:05;;;;;;;4.43;0.90;;;25.70;26.20;;;;;;5034040;28;20271;-71
2022/09/18 03:36:32;;;;;;;1.73;0.70;;;25.40;27.40;;;;;;5033410;28;20184;-72
2022/09/18 03:39:00;;;;;;;3.77;0.90;;;25.10;26.20;;;;;;5018872;28;20177;-72
2022/09/18 03:41:27;;;;;;;1.70;0.60;;;25.30;26.50;;;;;;5033569;28;20268;-76
2022/09/18 03:43:55;;;;;;;3.53;0.67;;;25.30;26.30;;;;;;5033720;28;20235;-71
2022/09/18 03:46:22;;;;;;;0.80;0.50;;;25.70;26.10;;;;;;5032508;28;20196;-72
2022/09/18 03:48:53;;;;;;;1.90;0.70;;;25.70;26.20;;;;;;5030584;28;20200;-72
2022/09/18 03:51:21;;;;;;;1.43;0.80;;;26.00;25.70;;;;;;5032793;28;20213;-72
2022/09/18 03:53:50;;;;;;;1.50;0.60;;;25.80;27.10;;;;;;5025525;28;20654;-71
2022/09/18 03:56:17;;;;;;;2.23;0.53;;;25.90;26.40;;;;;;5032914;28;20177;-76
2022/09/18 03:58:45;;;;;;;1.33;0.60;;;26.00;25.50;;;;;;5032763;28;20188;-70
2022/09/18 04:01:12;;;;;;;1.70;0.90;;;25.70;26.50;;;;;;5032416;28;20184;-72
2022/09/18 04:03:40;;;;;;;1.60;0.60;;;25.90;26.50;;;;;;5032443;28;20191;-75
2022/09/18 04:06:07;;;;;;;1.87;0.70;;;25.90;26.80;;;;;;5032831;28;20232;-73
2022/09/18 04:08:36;;;;;;;1.80;0.90;;;25.90;26.50;;;;;;5031099;28;20187;-74
2022/09/18 04:11:05;;;;;;;2.07;0.70;;;26.00;26.00;;;;;;5032103;28;20212;-73
2022/09/18 04:13:33;;;;;;;3.00;1.03;;;25.80;26.70;;;;;;5032742;28;20196;-72
2022/09/18 04:16:01;;;;;;;1.30;0.60;;;25.90;26.90;;;;;;5032130;28;20173;-74
2022/09/18 04:18:29;;;;;;;1.70;0.63;;;25.50;27.30;;;;;;5030607;28;20222;-71
2022/09/18 04:20:57;;;;;;;2.07;0.73;;;25.90;26.60;;;;;;5028587;28;20223;-73
2022/09/18 04:23:25;;;;;;;2.33;0.80;;;26.30;26.30;;;;;;5028882;28;20271;-73
2022/09/18 04:25:52;;;;;;;3.13;0.80;;;26.60;25.90;;;;;;5030651;28;20184;-77
2022/09/18 04:28:19;;;;;;;2.63;0.63;;;26.20;26.10;;;;;;5031994;28;20184;-77
2022/09/18 04:30:47;;;;;;;1.60;0.70;;;26.60;24.60;;;;;;5031476;28;20199;-74
2022/09/18 04:33:15;;;;;;;1.43;0.80;;;26.50;24.50;;;;;;5026387;28;20317;-72
2022/09/18 04:35:42;;;;;;;3.90;1.00;;;26.80;24.10;;;;;;5022384;28;20185;-71
2022/09/18 04:38:11;;;;;;;2.37;0.90;;;26.20;25.90;;;;;;5030110;28;20195;-72
2022/09/18 04:40:38;;;;;;;2.17;0.70;;;26.50;24.90;;;;;;5030792;28;20191;-72
2022/09/18 04:43:05;;;;;;;2.03;0.70;;;26.30;25.90;;;;;;5039767;28;20238;-70
2022/09/18 04:45:33;;;;;;;2.87;0.80;;;26.50;26.10;;;;;;5017979;28;20183;-73
2022/09/18 04:48:00;;;;;;;1.93;0.80;;;26.80;25.70;;;;;;5034350;28;20187;-72
2022/09/18 04:50:28;;;;;;;2.23;0.90;;;26.80;24.70;;;;;;5033486;28;20185;-73
2022/09/18 04:52:55;;;;;;;1.10;0.70;;;27.00;24.40;;;;;;5037197;28;20223;-74
2022/09/18 04:55:24;;;;;;;1.10;0.70;;;26.80;24.90;;;;;;5044808;28;20639;-74
2022/09/18 04:57:51;;;;;;;2.00;0.90;;;26.10;26.00;;;;;;5047581;28;20182;-72
2022/09/18 05:00:19;;;;;;;1.67;0.77;;;26.10;26.20;;;;;;5028995;28;20176;-75
2022/09/18 05:02:46;;;;;;;6.13;0.80;;;26.80;25.60;;;;;;5030266;28;20275;-74
2022/09/18 05:05:14;;;;;;;1.67;0.60;;;26.50;25.40;;;;;;5032114;28;20189;-72
2022/09/18 05:07:41;;;;;;;2.47;0.73;;;26.50;25.20;;;;;;5030563;28;20177;-73
2022/09/18 05:10:09;;;;;;;1.73;0.73;;;26.60;25.30;;;;;;5028824;28;20258;-74
2022/09/18 05:12:40;;;;;;;1.77;0.77;;;26.20;24.90;;;;;;5033617;28;20702;-75
2022/09/18 05:15:07;;;;;;;1.57;0.90;;;26.70;24.70;;;;;;5036206;28;20189;-73
2022/09/18 05:17:35;;;;;;;2.30;0.70;;;26.90;25.30;;;;;;5033614;28;20195;-76
2022/09/18 05:20:02;;;;;;;1.27;0.70;;;27.10;24.30;;;;;;5036195;28;20220;-75
2022/09/18 05:22:30;;;;;;;1.83;0.70;;;27.40;23.90;;;;;;5031890;28;20188;-74
2022/09/18 05:24:57;;;;;;;2.63;0.70;;;27.20;24.40;;;;;;5034382;28;20185;-78
2022/09/18 05:27:25;;;;;;;1.47;0.77;;;27.30;24.40;;;;;;5027566;28;20813;-74
2022/09/18 05:29:52;;;;;;;2.57;0.70;;;26.30;26.00;;;;;;5034267;28;20177;-75
2022/09/18 05:32:19;;;;;;;2.03;0.60;;;27.20;24.50;;;;;;5038844;28;20306;-74
2022/09/18 05:34:50;;;;;;;4.70;0.87;;;26.60;25.30;;;;;;5033194;28;20200;-72
2022/09/18 05:37:18;;;;;;;1.77;0.80;;;26.30;25.00;;;;;;5034617;28;20216;-73
2022/09/18 05:39:46;;;;;;;3.77;1.00;;;26.30;25.40;;;;;;5035615;28;20176;-71
2022/09/18 05:42:13;;;;;;;1.60;0.60;;;27.00;24.40;;;;;;5035222;28;20526;-76
2022/09/18 05:44:41;;;;;;;3.07;0.80;;;27.40;24.70;;;;;;5034100;28;20196;-71
2022/09/18 05:47:08;;;;;;;0.80;0.53;;;27.40;23.70;;;;;;5031717;28;20572;-74
2022/09/18 05:49:36;;;;;;;4.60;1.03;;;27.40;23.60;;;;;;5029521;28;20208;-73
2022/09/18 05:52:03;;;;;;;1.23;0.70;;;27.70;23.20;;;;;;5032333;28;20600;-72
2022/09/18 05:54:31;;;;;;;3.10;0.90;;;27.50;22.80;;;;;;5032952;28;20673;-76
2022/09/18 05:56:58;;;;;;;2.20;0.70;;;26.00;24.00;;;;;;5032334;28;20243;-75
2022/09/18 05:59:26;;;;;;;2.33;0.80;;;26.50;23.50;;;;;;5027008;28;20185;-72
2022/09/18 06:01:53;;;;;;;1.93;0.80;;;26.60;23.60;;;;;;5037348;28;20184;-72
2022/09/18 06:04:20;;;;;;;2.27;1.00;;;27.30;23.20;;;;;;5031593;28;20176;-72
2022/09/18 06:06:48;;;;;;;1.30;0.80;;;27.30;23.40;;;;;;5030925;28;20228;-71
2022/09/18 06:09:15;;;;;;;3.17;0.90;;;26.90;24.00;;;;;;5035386;28;20172;-73
2022/09/18 06:11:42;;;;;;;4.53;1.10;;;27.20;24.00;;;;;;5034743;28;20239;-71
2022/09/18 06:14:10;;;;;;;3.10;0.90;;;27.10;24.60;;;;;;5033594;28;20176;-72
2022/09/18 06:16:37;;;;;;;1.10;0.60;;;27.00;24.50;;;;;;5034130;28;20223;-70
2022/09/18 06:19:04;;;;;;;2.87;1.10;;;26.70;24.90;;;;;;5034240;28;20173;-75
2022/09/18 06:21:32;;;;;;;1.60;0.73;;;27.00;25.00;;;;;;5033841;28;20180;-71
2022/09/18 06:23:59;;;;;;;2.07;0.73;;;26.30;25.30;;;;;;5032833;28;20177;-73
2022/09/18 06:26:26;;;;;;;2.80;0.80;;;26.50;25.80;;;;;;5025816;28;20189;-72
2022/09/18 06:28:54;;;;;;;2.67;0.90;;;26.30;25.70;;;;;;5034780;28;20192;-71
2022/09/18 06:31:21;;;;;;;0.70;0.60;;;25.90;26.50;;;;;;5036295;28;20211;-74
2022/09/18 06:33:49;;;;;;;1.20;0.70;;;26.30;25.50;;;;;;5030934;28;21589;-72
2022/09/18 06:36:16;;;;;;;2.17;0.90;;;25.90;25.40;;;;;;5035287;28;20176;-71
2022/09/18 06:38:44;;;;;;;5.13;1.00;;;25.90;25.70;;;;;;5026389;28;20180;-73
2022/09/18 06:41:11;;;;;;;4.97;0.97;;;26.00;24.70;;;;;;5034237;28;20188;-75
2022/09/18 06:43:38;;;;;;;1.97;0.83;;;25.80;25.30;;;;;;5030050;28;20663;-78
2022/09/18 06:46:06;;;;;;;4.27;1.10;;;25.40;25.70;;;;;;5032926;28;20184;-72
2022/09/18 06:48:34;;;;;;;2.00;1.00;;;25.60;25.80;;;;;;5024700;28;20295;-76
2022/09/18 06:51:01;;;;;;;1.63;0.70;;;25.80;26.00;;;;;;5029780;28;20290;-76
2022/09/18 06:53:28;;;;;;;3.07;0.87;;;25.80;26.20;;;;;;5031990;28;20568;-72
2022/09/18 06:56:02;;;;;;;5.20;1.20;;;25.00;26.90;;;;;;5030746;28;20405;-74
2022/09/18 06:58:30;;;;;;;0.80;0.60;;;24.50;27.70;;;;;;5032987;28;20251;-80
2022/09/18 07:00:59;;;;;;;3.17;1.00;;;24.30;28.00;;;;;;5026856;28;20185;-80
2022/09/18 07:03:27;;;;;;;2.77;1.03;;;24.20;28.40;;;;;;5031764;28;20264;-71
2022/09/18 07:05:54;;;;;;;6.83;1.00;;;24.60;28.00;;;;;;5033299;28;20224;-73
2022/09/18 07:08:21;;;;;;;2.57;0.90;;;25.00;27.50;;;;;;5031062;28;20189;-73
2022/09/18 07:10:49;;;;;;;1.33;0.73;;;24.40;28.30;;;;;;5030173;28;20216;-72
2022/09/18 07:13:16;;;;;;;2.23;1.10;;;23.80;28.70;;;;;;5032233;28;20189;-75
2022/09/18 07:15:46;;;;;;;1.73;0.90;;;23.10;29.70;;;;;;5021481;28;20574;-73
2022/09/18 07:18:14;;;;;;;2.10;0.80;;;23.00;30.00;;;;;;5027749;28;20169;-75
2022/09/18 07:20:41;;;;;;;4.27;1.10;;;22.80;30.40;;;;;;5033228;28;20598;-74
2022/09/18 07:23:08;;;;;;;2.70;1.13;;;22.10;31.60;;;;;;5032782;28;20181;-72
2022/09/18 07:25:36;;;;;;;1.63;0.80;;;21.70;32.30;;;;;;5033004;28;20184;-76
2022/09/18 07:28:06;;;;;;;1.57;0.80;;;21.50;32.60;;;;;;5033370;28;20177;-74
2022/09/18 07:30:35;;;;;;;3.37;1.10;;;21.20;32.90;;;;;;5032946;28;20267;-73
2022/09/18 07:33:04;;;;;;;5.27;1.13;;;21.00;32.80;;;;;;5030979;28;20185;-73
2022/09/18 07:35:31;;;;;;;2.37;1.10;;;20.80;33.30;;;;;;5032357;28;20187;-72
2022/09/18 07:38:00;;;;;;;3.57;1.20;;;20.80;33.70;;;;;;5047638;28;20179;-72
2022/09/18 07:40:28;;;;;;;1.70;0.83;;;20.60;34.00;;;;;;5034659;28;20647;-71
2022/09/18 07:43:07;;;;;;;1.80;0.80;;;20.40;33.70;;;;;;5033625;28;20180;-74
2022/09/18 07:45:35;;;;;;;1.67;0.80;;;20.30;33.80;;;;;;5033255;28;20168;-73
2022/09/18 07:48:06;;;;;;;3.37;0.87;;;20.30;34.10;;;;;;5033470;28;20192;-74
2022/09/18 07:50:34;;;;;;;2.27;0.90;;;20.20;34.10;;;;;;5032646;28;20181;-73
2022/09/18 07:53:04;;;;;;;3.60;1.23;;;20.10;34.30;;;;;;5033008;28;20670;-73
2022/09/18 07:55:34;;;;;;;1.97;1.13;;;20.00;34.40;;;;;;5033004;28;20188;-75
2022/09/18 07:58:04;;;;;;;2.80;1.23;;;20.00;35.30;;;;;;5032749;28;20195;-73
2022/09/18 08:00:35;;;;;;;3.80;1.30;;;19.90;35.40;;;;;;5028001;28;20185;-73
2022/09/18 08:03:11;;;;;;;4.40;1.37;;;19.80;35.40;;;;;;5027946;28;20677;-76
2022/09/18 08:05:40;;;;;;;3.73;1.57;;;19.80;35.30;;;;;;5022443;28;21371;-74
2022/09/18 08:08:13;;;;;;;2.93;1.17;;;19.70;35.70;;;;;;5031477;28;20176;-76
2022/09/18 08:10:42;;;;;;;6.67;1.20;;;19.70;35.90;;;;;;5030052;28;20258;-76
2022/09/18 08:13:10;;;;;;;2.77;1.10;;;19.60;36.10;;;;;;5027793;28;20185;-74
2022/09/18 08:15:39;;;;;;;3.67;1.20;;;19.60;36.30;;;;;;5028384;28;20198;-73
2022/09/18 08:18:08;;;;;;;3.53;1.40;;;19.60;36.40;;;;;;5030040;28;20184;-73
2022/09/18 08:20:36;;;;;;;2.67;1.30;;;19.50;36.50;;;;;;5031704;28;20185;-75
2022/09/18 08:23:08;;;;;;;3.23;1.37;;;19.40;36.70;;;;;;5031500;28;20520;-77
2022/09/18 08:25:36;;;;;;;3.83;1.20;;;19.30;36.40;;;;;;5032385;28;20494;-76
2022/09/18 08:28:05;;;;;;;3.23;1.47;;;19.30;36.70;;;;;;5031468;28;20188;-75
2022/09/18 08:30:33;;;;;;;3.30;1.20;;;19.30;36.90;;;;;;5030236;28;20185;-75
2022/09/18 08:33:02;;;;;;;3.90;1.60;;;19.20;37.30;;;;;;5031767;28;20275;-74
2022/09/18 08:35:30;;;;;;;2.03;1.30;;;19.20;37.10;;;;;;5031680;28;20355;-75
2022/09/18 08:37:59;;;;;;;3.07;1.60;;;19.00;37.50;;;;;;5030859;28;20187;-75
2022/09/18 08:40:52;;;;;;;3.93;1.47;;;18.90;38.00;;;;;;5030519;28;20643;-75
2022/09/18 08:43:44;;;;;;;6.27;2.03;;;18.90;38.60;;;;;;5032331;28;20183;-75
2022/09/18 08:46:18;;;;;;;4.03;2.13;;;18.80;39.00;;;;;;5034891;28;20191;-75
2022/09/18 08:49:10;;;;;;;3.63;1.37;;;18.80;39.50;;;;;;5036030;28;20179;-79
2022/09/18 08:52:00;;;;;;;4.90;1.43;;;18.60;39.00;;;;;;5023659;28;20215;-74
2022/09/18 08:54:38;;;;;;;3.13;1.53;;;18.60;39.30;;;;;;5036096;28;20190;-75
2022/09/18 08:57:17;;;;;;;2.17;1.20;;;18.60;39.60;;;;;;5035890;28;20176;-73
2022/09/18 09:00:06;;;;;;;3.23;1.43;;;18.60;39.10;;;;;;5036002;28;20183;-73
2022/09/18 09:02:38;;;;;;;4.90;1.23;;;18.50;39.40;;;;;;5034851;28;20188;-72
2022/09/18 09:05:37;;;;;;;1.87;1.20;;;18.50;39.40;;;;;;5035286;28;20187;-74
2022/09/18 09:08:07;;;;;;;5.17;1.50;;;18.50;39.40;;;;;;5028033;28;20231;-76
2022/09/18 09:10:41;;;;;;;3.37;1.40;;;18.50;39.10;;;;;;5033849;28;20185;-76
2022/09/18 09:13:26;;;;;;;2.83;1.20;;;18.40;39.20;;;;;;5033361;28;20191;-73
2022/09/18 09:16:17;;;;;;;3.47;1.60;;;18.40;39.30;;;;;;5016414;28;20192;-73
2022/09/18 09:18:59;;;;;;;3.27;1.67;;;18.30;39.60;;;;;;5024204;28;20717;-73
2022/09/18 09:22:08;;;;;;;3.13;1.30;;;18.30;39.70;;;;;;5034972;28;20180;-74
2022/09/18 09:25:19;;;;;;;5.83;1.20;;;18.30;39.80;;;;;;5014173;28;20549;-73
2022/09/18 09:28:07;;;;;;;2.30;1.20;;;18.20;40.10;;;;;;5033968;28;20174;-77
2022/09/18 09:30:36;;;;;;;2.23;1.00;;;18.20;40.40;;;;;;5035805;28;20188;-75
2022/09/18 09:33:27;;;;;;;3.03;1.23;;;18.10;40.40;;;;;;5035173;28;20239;-74
2022/09/18 09:36:01;;;;;;;8.77;1.30;;;18.10;41.10;;;;;;5033319;28;20536;-74
2022/09/18 09:38:53;;;;;;;3.70;1.33;;;18.00;41.20;;;;;;5035836;28;20231;-74
2022/09/18 09:41:32;;;;;;;3.70;1.53;;;17.90;41.50;;;;;;5034324;28;20195;-74
2022/09/18 09:44:22;;;;;;;2.47;1.50;;;17.80;41.60;;;;;;5035463;28;20182;-74
2022/09/18 09:47:19;;;;;;;6.57;1.60;;;17.80;42.20;;;;;;5034270;28;20717;-74
2022/09/18 09:49:50;;;;;;;2.40;1.20;;;17.70;42.80;;;;;;5023895;28;20642;-73
2022/09/18 09:52:29;;;;;;;7.47;1.63;;;17.60;42.60;;;;;;5034747;28;20266;-76
2022/09/18 09:55:06;;;;;;;3.03;1.30;;;17.50;42.60;;;;;;5034730;28;20240;-74
2022/09/18 09:58:05;;;;;;;2.93;1.40;;;17.50;41.70;;;;;;5022066;28;20192;-76
2022/09/18 10:00:46;;;;;;;3.27;1.37;;;17.50;41.40;;;;;;5034838;28;20578;-73
2022/09/18 10:03:33;;;;;;;2.63;1.40;;;17.40;41.60;;;;;;5031085;28;20204;-74
2022/09/18 10:06:36;;;;;;;3.47;1.63;;;17.40;40.40;;;;;;5028160;28;20221;-74
2022/09/18 10:09:20;;;;;;;3.23;1.63;;;17.40;40.80;;;;;;5034134;28;20266;-74
2022/09/18 10:11:57;;;;;;;5.03;1.97;;;17.30;40.90;;;;;;5027664;28;20223;-76
2022/09/18 10:14:27;;;;;;;2.57;1.50;;;17.20;40.10;;;;;;5034566;28;20187;-73
2022/09/18 10:16:56;;;;;;;3.13;1.63;;;17.20;40.90;;;;;;5032798;28;20206;-73
2022/09/18 10:19:35;;;;;;;2.23;1.53;;;17.10;41.50;;;;;;5027188;28;20177;-74
2022/09/18 10:22:06;;;;;;;3.67;1.73;;;17.10;41.10;;;;;;5023149;28;20184;-74
2022/09/18 10:24:43;;;;;;;5.13;2.00;;;17.00;41.40;;;;;;5032831;28;20623;-73
2022/09/18 10:27:14;;;;;;;6.00;2.00;;;17.00;41.50;;;;;;5028405;28;20226;-74
2022/09/18 10:29:42;;;;;;;6.50;2.47;;;16.80;41.50;;;;;;5034179;28;20732;-74
2022/09/18 10:32:13;;;;;;;5.70;3.17;;;16.80;42.50;;;;;;5030809;28;20212;-74
2022/09/18 10:34:46;;;;;;;11.47;4.30;;;16.70;42.20;;;;;;5022351;28;20183;-73
2022/09/18 10:37:18;;;;;;;9.57;3.83;;;16.70;42.70;;;;;;5033662;28;20540;-73
2022/09/18 10:39:53;;;;;;;5.30;2.60;;;16.70;42.60;;;;;;5033764;28;20525;-75
2022/09/18 10:42:26;;;;;;;3.73;2.33;;;16.60;41.70;;;;;;5032402;28;20647;-74
2022/09/18 10:45:11;;;;;;;;;;;;;;;;;;;;;
2022/09/18 10:47:39;;;;;;;4.67;2.00;;;16.60;42.70;;;;;;5033767;28;20664;-74
2022/09/18 10:50:16;;;;;;;5.40;2.10;;;16.60;43.10;;;;;;5033140;28;20192;-74
2022/09/18 10:52:48;;;;;;;3.97;1.87;;;16.50;43.10;;;;;;5032283;28;20229;-73
2022/09/18 10:55:28;;;;;;;4.10;1.90;;;16.50;42.90;;;;;;5028509;28;20191;-75
2022/09/18 10:58:04;;;;;;;2.83;1.70;;;16.50;43.20;;;;;;5034287;28;20262;-74
2022/09/18 11:00:38;;;;;;;4.30;1.70;;;16.50;42.90;;;;;;5033238;28;20200;-74
2022/09/18 11:03:33;;;;;;;2.97;1.87;;;16.40;42.60;;;;;;5029809;28;20608;-72
2022/09/18 11:06:08;;;;;;;2.20;1.50;;;16.50;42.50;;;;;;5025703;28;20239;-73
2022/09/18 11:08:40;;;;;;;2.93;1.70;;;16.50;42.60;;;;;;5032911;28;20212;-74
2022/09/18 11:11:18;;;;;;;4.83;1.80;;;16.50;42.20;;;;;;5031865;28;20204;-74
2022/09/18 11:13:56;;;;;;;4.73;1.67;;;16.30;43.30;;;;;;5033160;28;20203;-75
2022/09/18 11:16:27;;;;;;;9.07;1.80;;;16.20;44.40;;;;;;5030110;28;20189;-74
2022/09/18 11:19:32;;;;;;;2.60;1.50;;;16.20;47.30;;;;;;5026371;28;20199;-74
2022/09/18 11:22:05;;;;;;;3.10;1.70;;;16.00;46.20;;;;;;5024915;28;20862;-75
2022/09/18 11:24:37;;;;;;;3.37;1.60;;;15.90;45.50;;;;;;5028242;28;20666;-74
2022/09/18 11:27:26;;;;;;;2.90;1.60;;;15.90;45.40;;;;;;5025860;28;20208;-75
2022/09/18 11:30:19;;;;;;;4.90;1.93;;;15.80;46.40;;;;;;5020767;28;20785;-74
2022/09/18 11:32:51;;;;;;;6.37;1.70;;;15.80;46.30;;;;;;5031381;28;20222;-74
2022/09/18 11:35:21;;;;;;;7.90;1.63;;;15.80;45.90;;;;;;5022532;28;20175;-74
2022/09/18 11:38:06;;;;;;;4.53;1.43;;;15.90;45.40;;;;;;5029184;28;20195;-74
2022/09/18 11:40:44;;;;;;;3.27;1.87;;;16.00;45.80;;;;;;5024117;28;20180;-74
2022/09/18 11:43:23;;;;;;;3.53;1.60;;;15.90;46.90;;;;;;5032335;28;20650;-74
2022/09/18 11:46:08;;;;;;;3.47;1.77;;;15.90;47.90;;;;;;5033616;28;20183;-74
2022/09/18 11:48:45;;;;;;;7.33;2.20;;;15.80;48.00;;;;;;5033229;28;20172;-73
2022/09/18 11:51:26;;;;;;;5.07;1.70;;;15.70;48.80;;;;;;5032879;28;20203;-74
2022/09/18 11:54:03;;;;;;;2.47;1.50;;;15.60;48.60;;;;;;5032589;28;20189;-74
2022/09/18 11:56:42;;;;;;;3.23;1.73;;;15.60;48.10;;;;;;5028723;28;20187;-74
2022/09/18 11:59:24;;;;;;;3.10;1.60;;;15.70;47.60;;;;;;5032331;28;20189;-74
2022/09/18 12:02:20;;;;;;;3.83;1.43;;;15.70;48.40;;;;;;5031542;28;20643;-74
2022/09/18 12:04:57;;;;;;;2.97;1.50;;;15.70;49.20;;;;;;5000463;28;20229;-74
2022/09/18 12:07:49;;;;;;;3.07;1.33;;;15.70;49.20;;;;;;5032967;28;20578;-75
2022/09/18 12:10:43;;;;;;;4.03;1.30;;;15.70;49.30;;;;;;5032753;28;20207;-74
2022/09/18 12:13:39;;;;;;;3.00;1.40;;;15.70;49.80;;;;;;5029781;28;20643;-74
2022/09/18 12:16:21;;;;;;;2.87;1.30;;;15.70;50.00;;;;;;5024493;28;20185;-73
2022/09/18 12:18:58;;;;;;;4.30;0.97;;;15.70;49.90;;;;;;5032220;28;20208;-73
2022/09/18 12:21:40;;;;;;;3.33;1.30;;;15.80;50.00;;;;;;5015423;28;20181;-74
2022/09/18 12:24:17;;;;;;;3.47;1.17;;;15.80;49.90;;;;;;5031155;28;20168;-74
2022/09/18 12:27:10;;;;;;;3.60;1.40;;;15.80;50.50;;;;;;5030314;28;20281;-75
2022/09/18 12:30:07;;;;;;;5.10;1.23;;;15.70;50.20;;;;;;5004285;28;20524;-74
2022/09/18 12:32:37;;;;;;;3.57;1.33;;;15.80;50.40;;;;;;5030358;28;20265;-73
2022/09/18 12:35:41;;;;;;;2.50;1.20;;;15.80;50.20;;;;;;5030261;28;20183;-74
2022/09/18 12:38:23;;;;;;;3.87;1.40;;;15.80;50.30;;;;;;5035187;28;20234;-74
2022/09/18 12:40:58;;;;;;;4.30;1.10;;;15.80;50.20;;;;;;5032399;28;20168;-74
2022/09/18 12:43:47;;;;;;;4.23;1.27;;;15.80;50.50;;;;;;5019370;28;20179;-73
2022/09/18 12:46:23;;;;;;;3.43;1.00;;;15.70;51.20;;;;;;5030968;28;20184;-74
2022/09/18 12:48:58;;;;;;;6.40;1.60;;;15.70;50.90;;;;;;5032334;28;20495;-74
2022/09/18 12:51:38;;;;;;;2.10;1.03;;;15.70;50.80;;;;;;5020262;28;20287;-74
2022/09/18 12:54:33;;;;;;;2.20;1.10;;;15.70;51.70;;;;;;5024839;28;20208;-74
2022/09/18 12:57:29;;;;;;;3.43;1.17;;;15.70;50.70;;;;;;5032036;28;20195;-74
2022/09/18 13:00:11;;;;;;;4.53;1.43;;;15.70;51.50;;;;;;5030129;28;20737;-74
2022/09/18 13:03:28;;;;;;;5.70;1.23;;;15.60;52.20;;;;;;5018474;28;20247;-74
2022/09/18 13:06:24;;;;;;;3.70;1.30;;;15.50;52.70;;;;;;4998836;28;20231;-74
2022/09/18 13:09:10;;;;;;;2.97;1.40;;;15.30;53.80;;;;;;5031986;28;20202;-74
2022/09/18 13:11:52;;;;;;;3.67;1.40;;;15.30;54.30;;;;;;5019221;28;20541;-74
2022/09/18 13:14:23;;;;;;;1.97;1.10;;;15.20;54.60;;;;;;5029765;28;20258;-74
2022/09/18 13:16:53;;;;;;;3.67;1.10;;;15.10;55.10;;;;;;5021740;28;20212;-74
2022/09/18 13:19:29;;;;;;;2.50;1.13;;;15.10;55.20;;;;;;5019337;28;20216;-74
2022/09/18 13:22:01;;;;;;;2.57;1.30;;;15.00;55.30;;;;;;5016187;28;20192;-74
2022/09/18 13:24:34;;;;;;;5.07;1.77;;;14.90;55.70;;;;;;5030118;28;20177;-74
2022/09/18 13:27:08;;;;;;;2.63;1.30;;;14.80;56.10;;;;;;5032075;28;20215;-74